Time;durP1;ratioP1;P1;durP2;ratioP2;P2;SDS_P1;SDS_P2;PMS_P1;PMS_P2;Temp;Humidity;BMP_temperature;BMP_pressure;BME280_temperature;BME280_humidity;BME280_pressure;Samples;Min_cycle;Max_cycle;Signal;HPM_P1;HPM_P2
2022/01/06 00:00:11;;;;;;;24.87;14.80;;;;;;;3.32;100.00;97229.45;1752128;82;21050;-71
2022/01/06 00:02:43;;;;;;;21.95;12.53;;;;;;;3.31;100.00;97229.15;1751224;82;21550;-71
2022/01/06 00:05:10;;;;;;;21.50;12.70;;;;;;;3.31;100.00;97221.63;1744229;82;21030;-72
2022/01/06 00:07:37;;;;;;;19.90;11.53;;;;;;;3.34;100.00;97217.23;1742895;82;21050;-72
2022/01/06 00:10:11;;;;;;;19.37;10.63;;;;;;;3.32;100.00;97221.44;1722114;83;21061;-71
2022/01/06 00:12:47;;;;;;;20.33;11.57;;;;;;;3.33;100.00;97215.58;1689604;84;21042;-71
2022/01/06 00:17:47;;;;;;;20.40;11.47;;;;;;;3.35;100.00;97224.24;1620263;88;21097;-71
2022/01/06 00:23:22;;;;;;;24.10;12.80;;;;;;;3.32;100.00;97214.75;1618513;89;21138;-71
2022/01/06 00:25:34;;;;;;;23.30;14.07;;;;;;;3.31;100.00;97210.94;1618388;89;21054;-71
2022/01/06 00:28:01;;;;;;;28.90;18.87;;;;;;;3.30;100.00;97219.98;1618597;89;21666;-72
2022/01/06 00:30:28;;;;;;;28.73;17.50;;;;;;;3.28;100.00;97223.38;1618145;88;21097;-71
2022/01/06 00:32:55;;;;;;;25.07;16.47;;;;;;;3.26;100.00;97214.70;1618901;88;21094;-71
2022/01/06 00:35:22;;;;;;;24.97;13.07;;;;;;;3.22;100.00;97216.44;1628327;87;21043;-70
2022/01/06 00:37:49;;;;;;;20.47;12.30;;;;;;;3.23;100.00;97215.92;1642866;86;21034;-71
2022/01/06 00:40:16;;;;;;;19.43;11.33;;;;;;;3.21;100.00;97206.77;1665243;86;21041;-71
2022/01/06 00:42:44;;;;;;;17.70;10.03;;;;;;;3.21;100.00;97204.09;1665131;86;21581;-72
2022/01/06 00:45:11;;;;;;;18.93;8.97;;;;;;;3.21;100.00;97199.28;1642810;86;21070;-71
2022/01/06 00:47:38;;;;;;;20.07;10.43;;;;;;;3.21;100.00;97192.08;1632678;87;21116;-72
2022/01/06 00:50:06;;;;;;;15.87;9.10;;;;;;;3.21;100.00;97197.42;1620436;88;21476;-72
2022/01/06 00:52:34;;;;;;;17.93;9.20;;;;;;;3.19;100.00;97194.13;1618888;88;21058;-71
2022/01/06 00:55:01;;;;;;;21.50;10.23;;;;;;;3.19;100.00;97198.13;1618584;89;21133;-72
2022/01/06 00:57:29;;;;;;;20.00;10.17;;;;;;;3.19;100.00;97197.31;1618455;89;21165;-71
2022/01/06 00:59:56;;;;;;;23.43;11.20;;;;;;;3.18;100.00;97195.65;1606962;88;21042;-72
2022/01/06 01:02:23;;;;;;;19.27;9.30;;;;;;;3.17;100.00;97193.50;1666260;85;21534;-71
2022/01/06 01:04:50;;;;;;;24.37;9.87;;;;;;;3.18;100.00;97187.64;1682791;85;21086;-72
2022/01/06 01:07:17;;;;;;;19.33;10.30;;;;;;;3.19;100.00;97193.31;1683017;85;21019;-71
2022/01/06 01:09:44;;;;;;;17.77;9.13;;;;;;;3.19;100.00;97181.30;1682067;85;21053;-73
2022/01/06 01:12:18;;;;;;;16.97;9.50;;;;;;;3.18;100.00;97182.30;1682684;85;21003;-71
2022/01/06 01:14:53;;;;;;;16.77;9.63;;;;;;;3.19;100.00;97187.97;1682216;85;21614;-71
2022/01/06 01:17:15;;;;;;;15.60;8.87;;;;;;;3.18;100.00;97191.13;1659618;85;21543;-72
2022/01/06 01:19:43;;;;;;;17.13;10.07;;;;;;;3.18;100.00;97192.45;1682690;84;21538;-71
2022/01/06 01:22:10;;;;;;;17.53;10.27;;;;;;;3.19;100.00;97195.98;1693663;84;21065;-72
2022/01/06 01:24:38;;;;;;;17.97;9.90;;;;;;;3.19;100.00;97199.47;1693317;84;21096;-72
2022/01/06 01:27:07;;;;;;;19.73;11.37;;;;;;;3.18;100.00;97189.79;1714034;84;21018;-72
2022/01/06 01:29:44;;;;;;;18.57;10.13;;;;;;;3.16;100.00;97198.51;1752450;81;21018;-72
2022/01/06 01:32:05;;;;;;;15.27;9.20;;;;;;;3.18;100.00;97196.98;1713243;84;20998;-71
2022/01/06 01:34:32;;;;;;;19.00;10.17;;;;;;;3.18;100.00;97199.66;1684727;84;21038;-72
2022/01/06 01:36:59;;;;;;;18.20;10.27;;;;;;;3.17;100.00;97193.98;1701679;84;21039;-73
2022/01/06 01:39:26;;;;;;;16.83;9.13;;;;;;;3.16;100.00;97189.68;1680566;84;21028;-72
2022/01/06 01:41:53;;;;;;;16.57;9.77;;;;;;;3.16;100.00;97196.36;1700969;84;21477;-71
2022/01/06 01:44:21;;;;;;;19.57;10.77;;;;;;;3.15;100.00;97188.87;1680592;84;21011;-71
2022/01/06 01:47:02;;;;;;;15.67;9.13;;;;;;;3.14;100.00;97184.53;1701054;84;21091;-71
2022/01/06 01:51:57;;;;;;;16.30;9.57;;;;;;;3.13;100.00;97176.19;1667344;86;21038;-71
2022/01/06 01:54:23;;;;;;;19.03;9.37;;;;;;;3.12;100.00;97175.89;1667233;86;21031;-71
2022/01/06 01:56:51;;;;;;;18.33;10.20;;;;;;;3.13;100.00;97174.86;1667299;86;21635;-72
2022/01/06 01:59:18;;;;;;;18.23;10.27;;;;;;;3.12;100.00;97181.75;1666686;85;21074;-71
2022/01/06 02:01:45;;;;;;;19.73;10.53;;;;;;;3.10;100.00;97181.94;1669421;86;21065;-69
2022/01/06 02:04:13;;;;;;;22.67;10.03;;;;;;;3.08;100.00;97179.98;1642555;86;21106;-72
2022/01/06 02:06:42;;;;;;;19.90;10.90;;;;;;;3.08;100.00;97172.45;1635457;88;21145;-71
2022/01/06 02:09:09;;;;;;;19.83;10.53;;;;;;;3.07;100.00;97175.65;1629210;86;21032;-71
2022/01/06 02:11:37;;;;;;;16.20;9.00;;;;;;;3.06;100.00;97167.83;1666911;86;21626;-72
2022/01/06 02:14:06;;;;;;;18.67;10.53;;;;;;;3.04;100.00;97165.34;1667178;86;21075;-72
2022/01/06 02:16:34;;;;;;;18.13;10.30;;;;;;;3.02;100.00;97157.53;1667415;86;21087;-72
2022/01/06 02:19:03;;;;;;;18.83;10.23;;;;;;;3.01;100.00;97158.56;1667134;86;21008;-69
2022/01/06 02:21:30;;;;;;;17.67;10.40;;;;;;;2.98;100.00;97157.61;1667125;86;21547;-70
2022/01/06 02:23:57;;;;;;;16.10;9.40;;;;;;;2.96;100.00;97161.50;1667211;86;21589;-71
2022/01/06 02:26:24;;;;;;;20.20;11.43;;;;;;;2.93;100.00;97173.37;1667152;86;21043;-72
2022/01/06 02:28:51;;;;;;;20.13;10.83;;;;;;;2.93;100.00;97164.55;1667085;86;21541;-72
2022/01/06 02:31:18;;;;;;;18.10;10.23;;;;;;;2.91;100.00;97167.41;1644452;86;21110;-71
2022/01/06 02:33:46;;;;;;;18.03;10.40;;;;;;;2.90;100.00;97168.41;1667096;86;21095;-72
2022/01/06 02:36:14;;;;;;;17.70;10.07;;;;;;;2.88;100.00;97180.31;1666921;86;21039;-72
2022/01/06 02:38:41;;;;;;;20.07;11.50;;;;;;;2.85;100.00;97173.50;1667051;86;21083;-71
2022/01/06 02:41:08;;;;;;;18.87;10.83;;;;;;;2.83;100.00;97175.05;1644453;86;21071;-71
2022/01/06 02:43:35;;;;;;;20.07;11.77;;;;;;;2.83;100.00;97180.39;1671982;86;21024;-72
2022/01/06 02:46:02;;;;;;;20.73;11.80;;;;;;;2.82;100.00;97179.24;1649752;86;21072;-71
2022/01/06 02:48:30;;;;;;;19.80;10.80;;;;;;;2.81;100.00;97182.91;1655006;85;21026;-72
2022/01/06 02:50:57;;;;;;;21.23;12.33;;;;;;;2.80;100.00;97185.28;1682897;85;21067;-72
2022/01/06 02:53:25;;;;;;;24.27;14.23;;;;;;;2.78;100.00;97173.47;1682753;85;21035;-73
2022/01/06 02:55:53;;;;;;;22.77;13.20;;;;;;;2.80;100.00;97167.94;1682768;85;21057;-73
2022/01/06 02:58:21;;;;;;;22.87;13.57;;;;;;;2.80;100.00;97168.76;1663097;85;20991;-72
2022/01/06 03:00:49;;;;;;;22.67;13.17;;;;;;;2.82;100.00;97177.91;1682707;85;21102;-72
2022/01/06 03:03:16;;;;;;;23.67;14.60;;;;;;;2.83;100.00;97184.88;1668322;84;21039;-72
2022/01/06 03:05:43;;;;;;;30.90;19.80;;;;;;;2.83;100.00;97186.22;1653002;84;21117;-71
2022/01/06 03:08:10;;;;;;;29.00;19.73;;;;;;;2.83;100.00;97181.72;1678241;84;21077;-71
2022/01/06 03:10:41;;;;;;;32.57;20.43;;;;;;;2.83;100.00;97184.39;1690879;84;21510;-71
2022/01/06 03:13:05;;;;;;;31.17;20.53;;;;;;;2.84;100.00;97183.88;1708358;84;21058;-72
2022/01/06 03:15:32;;;;;;;31.43;18.63;;;;;;;2.84;100.00;97183.36;1691335;84;21077;-71
2022/01/06 03:17:59;;;;;;;28.17;16.53;;;;;;;2.85;100.00;97179.69;1656418;84;20978;-72
2022/01/06 03:20:27;;;;;;;23.33;14.50;;;;;;;2.85;100.00;97186.84;1711360;84;21519;-72
2022/01/06 03:22:54;;;;;;;24.40;14.37;;;;;;;2.87;100.00;97190.17;1690806;84;21502;-72
2022/01/06 03:25:21;;;;;;;23.23;13.17;;;;;;;2.88;100.00;97185.13;1711187;84;21507;-72
2022/01/06 03:27:49;;;;;;;23.73;14.50;;;;;;;2.91;100.00;97175.94;1690875;84;21009;-71
2022/01/06 03:30:20;;;;;;;25.60;15.50;;;;;;;2.93;100.00;97187.23;1711107;84;21037;-72
2022/01/06 03:32:47;;;;;;;33.20;20.33;;;;;;;2.94;100.00;97186.20;1657784;86;21066;-72
2022/01/06 03:35:17;;;;;;;30.00;19.57;;;;;;;2.96;100.00;97186.86;1657714;86;21057;-72
2022/01/06 03:37:43;;;;;;;28.10;17.60;;;;;;;2.97;100.00;97177.81;1657930;86;21082;-72
2022/01/06 03:40:11;;;;;;;23.83;14.60;;;;;;;2.99;100.00;97176.62;1658124;86;21042;-72
2022/01/06 03:42:38;;;;;;;24.33;14.23;;;;;;;3.02;100.00;97162.05;1653938;86;21039;-71
2022/01/06 03:45:09;;;;;;;21.93;12.67;;;;;;;3.02;100.00;97160.20;1648864;87;21075;-72
2022/01/06 03:47:36;;;;;;;22.67;13.80;;;;;;;3.04;100.00;97149.33;1605715;87;21000;-72
2022/01/06 03:50:04;;;;;;;22.27;13.53;;;;;;;3.06;100.00;97149.14;1626872;87;21567;-71
2022/01/06 03:52:31;;;;;;;22.17;13.30;;;;;;;3.08;100.00;97154.62;1649002;87;21016;-72
2022/01/06 03:54:58;;;;;;;22.27;13.13;;;;;;;3.11;100.00;97154.20;1626751;87;21067;-71
2022/01/06 03:57:25;;;;;;;22.27;12.93;;;;;;;3.13;100.00;97151.34;1605487;87;21031;-72
2022/01/06 03:59:52;;;;;;;20.93;12.90;;;;;;;3.16;100.00;97157.64;1651790;87;21064;-70
2022/01/06 04:02:19;;;;;;;26.50;16.83;;;;;;;3.18;100.00;97158.27;1628639;87;21088;-72
2022/01/06 04:04:45;;;;;;;26.37;16.97;;;;;;;3.18;100.00;97158.27;1627096;87;21083;-72
2022/01/06 04:07:12;;;;;;;29.00;19.23;;;;;;;3.21;100.00;97161.89;1648732;87;21035;-71
2022/01/06 04:09:40;;;;;;;30.93;21.47;;;;;;;3.21;100.00;97156.03;1587341;88;21117;-71
2022/01/06 04:12:10;;;;;;;27.77;18.57;;;;;;;3.22;100.00;97159.03;1617195;88;21055;-71
2022/01/06 04:14:36;;;;;;;24.10;15.33;;;;;;;3.24;100.00;97006.63;1607407;88;21053;-72
2022/01/06 04:17:07;;;;;;;23.93;13.33;;;;;;;3.24;100.00;96997.28;1616546;88;21063;-73
2022/01/06 04:19:33;;;;;;;21.57;13.80;;;;;;;3.25;100.00;96997.58;1601616;89;21518;-72
2022/01/06 04:22:00;;;;;;;20.80;12.73;;;;;;;3.25;100.00;96997.58;1616536;88;21552;-73
2022/01/06 04:24:27;;;;;;;21.27;13.63;;;;;;;3.25;100.00;96994.91;1616307;88;21044;-73
2022/01/06 04:26:55;;;;;;;29.43;18.63;;;;;;;3.26;100.00;96997.05;1616676;87;21059;-72
2022/01/06 04:29:23;;;;;;;32.40;22.20;;;;;;;3.26;100.00;96983.70;1616334;89;21044;-72
2022/01/06 04:31:50;;;;;;;35.53;25.20;;;;;;;3.25;100.00;96986.89;1595019;88;21166;-74
2022/01/06 04:34:17;;;;;;;35.10;24.77;;;;;;;3.26;100.00;96985.04;1615770;89;21102;-72
2022/01/06 04:36:50;;;;;;;32.53;23.33;;;;;;;3.25;100.00;96995.42;1639865;86;21084;-72
2022/01/06 04:39:13;;;;;;;28.50;19.23;;;;;;;3.26;100.00;96991.22;1662588;86;21028;-72
2022/01/06 04:41:40;;;;;;;23.90;15.47;;;;;;;3.26;100.00;96993.05;1649895;86;21025;-72
2022/01/06 04:44:07;;;;;;;22.90;14.23;;;;;;;3.28;100.00;96991.03;1659050;85;21027;-73
2022/01/06 04:46:34;;;;;;;22.53;14.07;;;;;;;3.26;100.00;96985.88;1676469;85;20987;-71
2022/01/06 04:49:00;;;;;;;26.37;17.50;;;;;;;3.26;100.00;96984.55;1661112;85;21042;-71
2022/01/06 04:51:28;;;;;;;30.63;21.17;;;;;;;3.26;100.00;96983.70;1675740;86;21061;-72
2022/01/06 04:53:57;;;;;;;31.47;20.80;;;;;;;3.26;100.00;96981.88;1660380;85;21040;-73
2022/01/06 04:56:24;;;;;;;29.60;20.47;;;;;;;3.28;100.00;96980.34;1660044;86;21023;-71
2022/01/06 04:58:51;;;;;;;27.30;17.90;;;;;;;3.29;100.00;96982.79;1675962;86;21014;-71
2022/01/06 05:01:18;;;;;;;27.50;17.80;;;;;;;3.32;100.00;96977.58;1675970;85;21018;-72
2022/01/06 05:03:45;;;;;;;30.90;20.00;;;;;;;3.32;100.00;96974.39;1673286;84;21036;-71
2022/01/06 05:06:12;;;;;;;28.80;19.10;;;;;;;3.32;100.00;96969.05;1715165;82;21492;-70
2022/01/06 05:08:39;;;;;;;28.33;17.87;;;;;;;3.32;100.00;96969.56;1738558;82;21043;-71
2022/01/06 05:11:06;;;;;;;27.17;16.57;;;;;;;3.31;100.00;96970.58;1749627;82;21032;-71
2022/01/06 05:13:33;;;;;;;25.97;16.23;;;;;;;3.33;100.00;96967.19;1739313;82;21548;-71
2022/01/06 05:16:00;;;;;;;31.00;19.50;;;;;;;3.35;100.00;96970.52;1749615;81;21509;-72
2022/01/06 05:18:27;;;;;;;34.87;23.80;;;;;;;3.34;100.00;96976.86;1749941;81;21008;-71
2022/01/06 05:20:54;;;;;;;32.30;21.13;;;;;;;3.34;100.00;96976.34;1739361;82;21072;-72
2022/01/06 05:23:21;;;;;;;26.70;17.27;;;;;;;3.34;100.00;96969.67;1739347;82;20984;-71
2022/01/06 05:25:48;;;;;;;26.60;16.67;;;;;;;3.34;100.00;96966.18;1749737;82;21040;-73
2022/01/06 05:28:15;;;;;;;28.97;16.77;;;;;;;3.32;100.00;96966.38;1739335;82;20949;-73
2022/01/06 05:30:42;;;;;;;28.50;17.70;;;;;;;3.32;100.00;96959.70;1749696;81;21020;-72
2022/01/06 05:33:10;;;;;;;28.50;16.77;;;;;;;3.30;100.00;96961.75;1739607;82;20973;-72
2022/01/06 05:35:37;;;;;;;32.83;21.13;;;;;;;3.30;100.00;96965.76;1749626;82;21008;-71
2022/01/06 05:38:04;;;;;;;34.87;22.60;;;;;;;3.30;100.00;96962.27;1739395;82;21020;-72
2022/01/06 05:40:33;;;;;;;39.23;24.63;;;;;;;3.28;100.00;96962.98;1739356;82;21508;-72
2022/01/06 05:43:00;;;;;;;36.07;23.10;;;;;;;3.26;100.00;96979.20;1740255;82;21056;-73
2022/01/06 05:45:28;;;;;;;41.90;25.30;;;;;;;3.25;100.00;96983.41;1742002;81;21056;-72
2022/01/06 05:47:55;;;;;;;36.70;24.13;;;;;;;3.23;100.00;96981.75;1741986;82;21020;-71
2022/01/06 05:50:22;;;;;;;36.67;22.80;;;;;;;3.23;100.00;96976.92;1742041;81;21036;-71
2022/01/06 05:52:49;;;;;;;31.37;20.30;;;;;;;3.23;100.00;96986.27;1741725;82;21012;-70
2022/01/06 05:55:16;;;;;;;39.17;25.10;;;;;;;3.23;100.00;96967.58;1752775;80;21035;-71
2022/01/06 05:57:43;;;;;;;34.63;23.50;;;;;;;3.23;100.00;96980.41;1753214;82;21027;-69
2022/01/06 06:00:11;;;;;;;33.03;21.20;;;;;;;3.20;100.00;96983.47;1752650;80;21521;-71
2022/01/06 06:02:38;;;;;;;32.67;22.87;;;;;;;3.19;100.00;97002.39;1741324;82;21050;-70
2022/01/06 06:05:06;;;;;;;28.87;19.07;;;;;;;3.19;100.00;96994.38;1729371;82;21490;-72
2022/01/06 06:07:34;;;;;;;24.90;15.10;;;;;;;3.19;100.00;96995.72;1729454;82;21024;-73
2022/01/06 06:10:00;;;;;;;25.43;14.87;;;;;;;3.19;100.00;97002.39;1740991;82;21047;-71
2022/01/06 06:12:28;;;;;;;23.13;14.77;;;;;;;3.18;100.00;97010.89;1740327;82;21366;-71
2022/01/06 06:14:56;;;;;;;23.23;14.73;;;;;;;3.18;100.00;97004.73;1720171;82;21610;-73
2022/01/06 06:17:23;;;;;;;23.70;14.27;;;;;;;3.17;100.00;96993.73;1719923;82;21491;-71
2022/01/06 06:19:54;;;;;;;22.10;14.03;;;;;;;3.18;100.00;97000.73;1741002;82;21054;-72
2022/01/06 06:22:21;;;;;;;25.97;15.57;;;;;;;3.19;100.00;96993.05;1719906;82;21612;-73
2022/01/06 06:24:47;;;;;;;23.83;13.70;;;;;;;3.19;100.00;97001.88;1719956;82;21006;-77
2022/01/06 06:27:14;;;;;;;23.90;15.07;;;;;;;3.20;100.00;96993.34;1736414;82;21019;-75
2022/01/06 06:29:41;;;;;;;23.63;14.23;;;;;;;3.21;100.00;96995.81;1694721;84;20988;-72
2022/01/06 06:32:09;;;;;;;28.00;15.57;;;;;;;3.21;100.00;96990.47;1716315;84;21034;-72
2022/01/06 06:34:37;;;;;;;25.50;14.20;;;;;;;3.19;100.00;97001.88;1694627;84;21076;-71
2022/01/06 06:37:03;;;;;;;26.97;16.33;;;;;;;3.21;100.00;96993.66;1702104;82;20971;-73
2022/01/06 06:39:30;;;;;;;26.13;15.73;;;;;;;3.19;100.00;96993.86;1694535;84;21134;-72
2022/01/06 06:41:57;;;;;;;28.00;17.80;;;;;;;3.20;100.00;97001.34;1716305;84;21018;-71
2022/01/06 06:44:24;;;;;;;30.60;16.43;;;;;;;3.19;100.00;96998.38;1694078;84;21053;-72
2022/01/06 06:46:52;;;;;;;23.83;15.00;;;;;;;3.16;100.00;97003.59;1713904;84;21013;-73
2022/01/06 06:49:18;;;;;;;24.10;14.70;;;;;;;3.17;100.00;96999.07;1694075;84;21150;-73
2022/01/06 06:51:45;;;;;;;26.77;15.23;;;;;;;3.17;100.00;96987.05;1713718;84;21018;-74
2022/01/06 06:54:13;;;;;;;23.93;14.30;;;;;;;3.17;100.00;96985.23;1694508;84;20990;-73
2022/01/06 06:56:43;;;;;;;27.93;17.03;;;;;;;3.17;100.00;96993.73;1713713;84;21009;-72
2022/01/06 06:59:09;;;;;;;28.90;17.33;;;;;;;3.14;100.00;97004.83;1650901;86;21502;-71
2022/01/06 07:01:36;;;;;;;37.20;21.90;;;;;;;3.14;100.00;97008.83;1671596;86;21061;-71
2022/01/06 07:04:04;;;;;;;37.33;23.30;;;;;;;3.11;100.00;97006.55;1676248;84;21607;-72
2022/01/06 07:06:31;;;;;;;36.10;22.97;;;;;;;3.07;100.00;97010.12;1679935;82;21680;-72
2022/01/06 07:08:58;;;;;;;28.23;17.60;;;;;;;3.04;100.00;97012.66;1676495;83;21042;-72
2022/01/06 07:11:26;;;;;;;28.83;17.13;;;;;;;3.01;100.00;97025.58;1672074;84;21030;-72
2022/01/06 07:13:54;;;;;;;31.80;21.33;;;;;;;2.99;100.00;97020.95;1682296;83;21089;-73
2022/01/06 07:16:21;;;;;;;28.80;17.93;;;;;;;2.95;100.00;97022.38;1735705;82;21060;-70
2022/01/06 07:18:48;;;;;;;26.27;15.70;;;;;;;2.94;100.00;97020.72;1675243;84;21094;-76
2022/01/06 07:21:15;;;;;;;26.73;17.60;;;;;;;2.91;100.00;97022.47;1676978;85;21101;-70
2022/01/06 07:23:42;;;;;;;26.13;16.13;;;;;;;2.90;100.00;97027.48;1672081;83;21082;-69
2022/01/06 07:26:09;;;;;;;25.77;16.13;;;;;;;2.91;100.00;97033.14;1684755;83;22266;-71
2022/01/06 07:28:37;;;;;;;29.53;20.07;;;;;;;2.90;100.00;97036.81;1656679;85;21523;-71
2022/01/06 07:31:04;;;;;;;31.40;21.73;;;;;;;2.91;100.00;97031.29;1675512;85;21021;-69
2022/01/06 07:33:32;;;;;;;29.00;20.27;;;;;;;2.91;100.00;97038.48;1692991;83;21057;-69
2022/01/06 07:35:59;;;;;;;29.67;18.60;;;;;;;2.90;100.00;97031.48;1696122;83;21582;-69
2022/01/06 07:38:26;;;;;;;25.57;16.50;;;;;;;2.90;100.00;97042.97;1679846;83;21110;-69
2022/01/06 07:40:52;;;;;;;27.83;17.40;;;;;;;2.92;100.00;97052.13;1695329;83;21054;-68
2022/01/06 07:43:19;;;;;;;22.80;13.07;;;;;;;2.93;100.00;97043.11;1708059;83;22362;-67
2022/01/06 07:45:46;;;;;;;32.63;21.83;;;;;;;2.94;100.00;97033.57;1676276;83;20958;-72
2022/01/06 07:48:19;;;;;;;36.93;25.37;;;;;;;2.95;100.00;97037.88;1676374;85;21141;-70
2022/01/06 07:50:47;;;;;;;55.15;34.53;;;;;;;2.95;100.00;97037.88;1672321;85;21074;-69
2022/01/06 07:53:13;;;;;;;46.43;30.40;;;;;;;2.92;100.00;97029.44;1684930;83;21045;-69
2022/01/06 07:55:41;;;;;;;43.07;28.27;;;;;;;2.92;100.00;97028.95;1700559;82;21019;-72
2022/01/06 07:58:08;;;;;;;30.40;16.97;;;;;;;2.91;100.00;97039.30;1682694;84;21577;-68
2022/01/06 08:00:34;;;;;;;29.87;19.07;;;;;;;2.92;100.00;97033.44;1680150;84;21529;-70
2022/01/06 08:03:02;;;;;;;23.47;14.70;;;;;;;2.91;100.00;97033.95;1674027;85;21128;-69
2022/01/06 08:05:29;;;;;;;23.70;14.90;;;;;;;2.92;100.00;97034.28;1648717;86;21082;-67
2022/01/06 08:07:56;;;;;;;26.70;15.97;;;;;;;2.93;100.00;97035.10;1678040;85;21115;-70
2022/01/06 08:10:23;;;;;;;26.50;16.43;;;;;;;2.92;100.00;97024.95;1697440;83;21459;-66
2022/01/06 08:12:50;;;;;;;25.03;15.73;;;;;;;2.94;100.00;97022.05;1698990;84;20962;-66
2022/01/06 08:15:17;;;;;;;27.53;18.27;;;;;;;2.93;100.00;97024.42;1682420;85;21087;-69
2022/01/06 08:17:44;;;;;;;26.17;16.20;;;;;;;2.92;100.00;97021.43;1682686;85;21020;-66
2022/01/06 08:20:12;;;;;;;41.53;26.10;;;;;;;2.91;100.00;97019.28;1682328;83;21035;-65
2022/01/06 08:22:39;;;;;;;33.27;20.47;;;;;;;2.93;100.00;97016.42;1687404;85;21038;-66
2022/01/06 08:25:08;;;;;;;23.70;13.97;;;;;;;2.96;100.00;97004.02;1685057;83;21498;-67
2022/01/06 08:27:35;;;;;;;22.70;13.80;;;;;;;2.97;100.00;96997.64;1666268;85;21008;-65
2022/01/06 08:30:04;;;;;;;24.93;13.67;;;;;;;2.96;100.00;97006.69;1681091;85;21094;-66
2022/01/06 08:32:32;;;;;;;26.77;16.43;;;;;;;2.97;100.00;97004.31;1672386;85;21020;-68
2022/01/06 08:34:59;;;;;;;27.03;16.97;;;;;;;2.98;100.00;97013.98;1657892;85;21638;-68
2022/01/06 08:37:27;;;;;;;40.20;26.80;;;;;;;3.02;100.00;97024.58;1680836;85;21057;-67
2022/01/06 08:39:54;;;;;;;35.03;25.50;;;;;;;3.07;100.00;97034.67;1658491;85;21020;-69
2022/01/06 08:42:21;;;;;;;44.90;32.97;;;;;;;3.11;100.00;97047.94;1679216;85;21091;-68
2022/01/06 08:44:48;;;;;;;38.53;25.67;;;;;;;3.13;100.00;97048.55;1683243;85;21149;-67
2022/01/06 08:47:15;;;;;;;42.00;25.77;;;;;;;3.14;100.00;97039.02;1682830;85;20999;-68
2022/01/06 08:49:42;;;;;;;28.07;17.97;;;;;;;3.16;100.00;97032.15;1733842;82;21030;-68
2022/01/06 08:52:09;;;;;;;52.07;35.37;;;;;;;3.18;100.00;97034.11;1734134;82;21527;-68
2022/01/06 08:54:37;;;;;;;33.60;22.90;;;;;;;3.17;100.00;97033.78;1732892;82;21009;-69
2022/01/06 08:57:04;;;;;;;31.70;20.37;;;;;;;3.17;100.00;97034.63;1712827;83;21515;-71
2022/01/06 08:59:31;;;;;;;34.30;21.30;;;;;;;3.16;100.00;97030.30;1698766;84;22129;-68
2022/01/06 09:01:58;;;;;;;58.47;36.43;;;;;;;3.19;100.00;97029.91;1734002;82;21011;-69
2022/01/06 09:04:25;;;;;;;46.33;27.23;;;;;;;3.22;100.00;97021.51;1734416;82;21037;-68
2022/01/06 09:06:53;;;;;;;30.67;19.57;;;;;;;3.23;100.00;97019.66;1739101;82;21625;-68
2022/01/06 09:09:21;;;;;;;31.40;20.47;;;;;;;3.21;100.00;97021.70;1699869;83;21016;-68
2022/01/06 09:11:49;;;;;;;34.27;22.67;;;;;;;3.21;100.00;97025.19;1720789;83;21511;-69
2022/01/06 09:14:16;;;;;;;41.87;28.50;;;;;;;3.22;100.00;97034.02;1711965;82;21061;-70
2022/01/06 09:16:43;;;;;;;62.10;39.47;;;;;;;3.26;100.00;97027.27;1721465;83;21026;-70
2022/01/06 09:19:12;;;;;;;43.60;28.30;;;;;;;3.30;100.00;97023.70;1696149;83;21025;-67
2022/01/06 09:21:40;;;;;;;74.97;41.87;;;;;;;3.30;100.00;97023.17;1718421;83;21002;-68
2022/01/06 09:24:07;;;;;;;46.97;29.30;;;;;;;3.34;100.00;97031.09;1719170;81;21124;-68
2022/01/06 09:26:34;;;;;;;70.57;38.70;;;;;;;3.35;100.00;97039.43;1656935;85;21498;-67
2022/01/06 09:29:04;;;;;;;51.17;29.30;;;;;;;3.39;100.00;97038.00;1652469;85;21077;-67
2022/01/06 09:31:35;;;;;;;45.00;27.27;;;;;;;3.35;100.00;97035.42;1677826;84;21039;-67
2022/01/06 09:34:03;;;;;;;52.30;31.80;;;;;;;3.32;100.00;97042.48;1688408;84;20990;-66
2022/01/06 09:36:31;;;;;;;33.10;21.87;;;;;;;3.31;100.00;97043.53;1709569;83;21053;-69
2022/01/06 09:38:59;;;;;;;48.30;35.77;;;;;;;3.31;100.00;97036.01;1690602;84;21991;-66
2022/01/06 09:41:27;;;;;;;35.83;24.10;;;;;;;3.32;100.00;97040.34;1711317;84;21049;-67
2022/01/06 09:43:55;;;;;;;43.93;30.77;;;;;;;3.32;100.00;97037.67;1694611;84;21086;-66
2022/01/06 09:46:22;;;;;;;31.00;19.47;;;;;;;3.32;100.00;97037.15;1670727;85;21079;-67
2022/01/06 09:48:49;;;;;;;30.00;19.07;;;;;;;3.36;100.00;97041.06;1674320;85;21062;-67
2022/01/06 09:51:18;;;;;;;39.77;28.67;;;;;;;3.35;100.00;97047.45;1663959;85;21038;-65
2022/01/06 09:53:45;;;;;;;44.07;31.13;;;;;;;3.32;100.00;97043.83;1673838;85;21018;-66
2022/01/06 09:56:12;;;;;;;39.03;27.97;;;;;;;3.28;100.00;97050.59;1658779;86;21051;-73
2022/01/06 09:58:40;;;;;;;36.87;25.43;;;;;;;3.25;100.00;97044.83;1677611;85;21490;-68
2022/01/06 10:01:07;;;;;;;37.37;26.17;;;;;;;3.21;100.00;97057.23;1663777;86;21503;-65
2022/01/06 10:03:37;;;;;;;38.10;25.67;;;;;;;3.19;100.00;97056.61;1684420;84;21015;-68
2022/01/06 10:06:21;;;;;;;42.50;28.27;;;;;;;3.18;100.00;97053.61;1670003;85;21099;-68
2022/01/06 10:08:59;;;;;;;54.70;36.47;;;;;;;3.19;100.00;97051.78;1687904;83;21019;-68
2022/01/06 10:11:29;;;;;;;46.87;31.23;;;;;;;3.19;100.00;97047.27;1721126;83;21062;-67
2022/01/06 10:14:08;;;;;;;46.37;29.90;;;;;;;3.22;100.00;97042.02;1685246;84;21520;-67
2022/01/06 10:19:11;;;;;;;41.87;27.70;;;;;;;3.25;100.00;97032.81;1637567;87;21613;-70
2022/01/06 10:21:42;;;;;;;43.63;27.33;;;;;;;3.30;100.00;97033.86;1606401;87;21088;-69
2022/01/06 10:24:22;;;;;;;49.57;35.83;;;;;;;3.32;100.00;97025.65;1625711;88;21090;-72
2022/01/06 10:27:06;;;;;;;52.93;33.93;;;;;;;3.33;100.00;97029.95;1592810;88;21066;-70
2022/01/06 10:29:47;;;;;;;47.87;32.03;;;;;;;3.32;100.00;97030.47;1625730;88;21070;-71
2022/01/06 10:32:24;;;;;;;39.48;25.90;;;;;;;3.30;100.00;97021.84;1595460;88;21578;-70
2022/01/06 10:34:54;;;;;;;45.90;29.80;;;;;;;3.25;100.00;97024.28;1609835;88;21080;-73
2022/01/06 10:37:26;;;;;;;44.50;29.03;;;;;;;3.21;100.00;97033.72;1634394;88;21097;-72
2022/01/06 10:39:58;;;;;;;46.50;32.20;;;;;;;3.22;100.00;97034.02;1632678;88;21063;-73
2022/01/06 10:42:29;;;;;;;41.90;27.47;;;;;;;3.26;100.00;97035.77;1615660;87;21049;-71
2022/01/06 10:45:08;;;;;;;40.77;27.47;;;;;;;3.23;100.00;97036.49;1590504;90;21145;-70
2022/01/06 10:47:35;;;;;;;54.73;37.77;;;;;;;3.26;100.00;97039.78;1575887;91;21116;-70
2022/01/06 10:50:15;;;;;;;59.60;45.10;;;;;;;3.26;100.00;97041.96;1524877;94;21164;-69
2022/01/06 10:52:48;;;;;;;46.10;33.43;;;;;;;3.28;100.00;97043.92;1504990;94;21149;-70
2022/01/06 10:55:28;;;;;;;47.98;33.55;;;;;;;3.26;100.00;97042.45;1506854;94;21479;-71
2022/01/06 10:58:15;;;;;;;57.07;36.33;;;;;;;3.24;100.00;97029.33;1524443;94;21113;-71
2022/01/06 11:00:44;;;;;;;58.50;42.07;;;;;;;3.25;100.00;97032.81;1520617;94;21133;-70
2022/01/06 11:03:15;;;;;;;81.57;56.23;;;;;;;3.25;100.00;97029.63;1524823;94;21117;-71
2022/01/06 11:05:50;;;;;;;49.10;32.80;;;;;;;3.22;100.00;97034.86;1524922;94;21064;-70
2022/01/06 11:08:19;;;;;;;50.60;34.93;;;;;;;3.19;100.00;97037.92;1517649;94;21589;-70
2022/01/06 11:10:49;;;;;;;47.07;31.33;;;;;;;3.18;100.00;97047.45;1515439;94;21109;-68
2022/01/06 11:13:17;;;;;;;55.20;33.43;;;;;;;3.14;100.00;97043.02;1528017;94;21101;-68
2022/01/06 11:15:44;;;;;;;48.53;29.47;;;;;;;3.14;100.00;97047.55;1526583;94;21177;-70
2022/01/06 11:18:21;;;;;;;34.43;21.90;;;;;;;3.11;100.00;97047.41;1520361;94;21062;-68
2022/01/06 11:20:48;;;;;;;44.30;27.10;;;;;;;3.11;100.00;97052.75;1533709;92;21133;-69
2022/01/06 11:23:25;;;;;;;59.63;38.27;;;;;;;3.08;100.00;97057.17;1547738;91;21075;-66
2022/01/06 11:26:23;;;;;;;57.53;36.27;;;;;;;3.09;100.00;97058.80;1542088;91;21134;-66
2022/01/06 11:28:58;;;;;;;44.30;30.80;;;;;;;3.11;100.00;97058.09;1548921;92;21085;-67
2022/01/06 11:31:28;;;;;;;39.70;26.07;;;;;;;3.12;100.00;97069.09;1548450;92;21045;-67